Flight Track Log - Related Links

Times and Time Zones

All times are in EST time to prevent confusion due to time zone crossing. See the UAE777 flight status page for this flight to view local times or setup timezone preferences in your user account.

Time Position Orientation Groundspeed Altitude Reporting Facility
EST Latitude Longitude Course Direction KTS MPH feet Rate Location/Type
Fri 03:04:48 PM 48.1232 -122.2800 14° North 281 323 6,200  Level FlightAware ADS-B (CYVR)
Fri 03:05:22 PM 48.1653 -122.2591 18° North 281 323 8,000 3,158 Climbing FlightAware ADS-B
Fri 03:05:45 PM 48.1925 -122.2430 22° Northeast 277 319 9,200 2,604 Climbing FlightAware ADS-B (CYVR)
Fri 03:06:15 PM 48.2286 -122.2191 24° Northeast 295 339 10,300 1,789 Climbing FlightAware ADS-B (CYVR)
Fri 03:06:42 PM 48.2597 -122.1828 38° Northeast 332 382 10,900 1,500 Climbing FlightAware ADS-B
Fri 03:07:15 PM 48.2963 -122.1263 46° Northeast 364 419 11,800 1,714 Climbing FlightAware ADS-B (CYVR)
Fri 03:07:17 PM 48.2994 -122.1220 43° Northeast 356 410 11,900 2,625 Climbing FlightAware ADS-B
Fri 03:07:47 PM 48.3349 -122.0650 47° Northeast 378 435 13,200 2,545 Climbing FlightAware ADS-B
Fri 03:07:50 PM 48.3381 -122.0605 43° Northeast 379 436 13,300 2,710 Climbing FlightAware ADS-B
Fri 03:08:18 PM 48.3722 -122.0060 47° Northeast 387 445 14,600 2,824 Climbing FlightAware ADS-B
Fri 03:08:24 PM 48.3786 -121.9962 45° Northeast 388 447 14,900 2,727 Climbing FlightAware ADS-B (CYVR)
Fri 03:08:51 PM 48.4140 -121.9410 46° Northeast 391 450 16,100 2,800 Climbing FlightAware ADS-B
Fri 03:08:54 PM 48.4170 -121.9361 47° Northeast 396 456 16,300 2,615 Climbing FlightAware ADS-B (CYVR)
Fri 03:09:30 PM 48.4640 -121.8620 46° Northeast 404 465 17,800 2,429 Climbing FlightAware ADS-B
Fri 03:09:36 PM 48.4710 -121.8511 46° Northeast 407 468 18,000 2,400 Climbing FlightAware ADS-B (CYVR)
Fri 03:10:00 PM 48.5037 -121.8000 46° Northeast 415 478 19,000 2,516 Climbing FlightAware ADS-B
Fri 03:10:07 PM 48.5056 -121.7967 49° Northeast 418 481 19,300 2,426 Climbing FlightAware ADS-B (CYVR)
Fri 03:10:47 PM 48.5599 -121.7108 46° Northeast 423 487 20,900 2,379 Climbing FlightAware ADS-B (CYVR)
Fri 03:11:05 PM 48.5902 -121.6630 46° Northeast 427 491 21,600 2,600 Climbing FlightAware ADS-B
Fri 03:11:17 PM 48.6057 -121.6380 47° Northeast 427 491 22,200 2,600 Climbing FlightAware ADS-B (CYVR)
Fri 03:11:35 PM 48.6313 -121.5970 47° Northeast 429 494 22,900 2,211 Climbing FlightAware ADS-B
Fri 03:11:55 PM 48.6587 -121.5536 46° Northeast 434 499 23,600 1,964 Climbing FlightAware ADS-B (CYVR)
Fri 03:12:30 PM 48.7043 -121.4810 46° Northeast 441 507 24,700 1,859 Climbing FlightAware ADS-B
Fri 03:13:06 PM 48.7579 -121.3951 47° Northeast 449 517 25,800 1,727 Climbing FlightAware ADS-B (CYVR)
Fri 03:13:36 PM 48.7733 -121.3703 47° Northeast 457 526 26,600 1,692 Climbing FlightAware ADS-B (CYVR)
Fri 03:13:45 PM 48.8134 -121.3060 47° Northeast 458 527 26,900 1,588 Climbing FlightAware ADS-B
Fri 03:14:10 PM 48.8499 -121.2468 47° Northeast 464 534 27,500 1,548 Climbing FlightAware ADS-B
Fri 03:14:47 PM 48.9047 -121.1582 47° Northeast 473 544 28,500 1,310 Climbing FlightAware ADS-B (CYVR)
Fri 03:15:37 PM 48.9802 -121.0356 47° Northeast 488 562 29,400 1,416 Climbing FlightAware ADS-B (CYVR)
Fri 03:16:16 PM 49.0323 -120.9505 47° Northeast 489 563 30,600 1,636 Climbing FlightAware ADS-B (CYVR)
Fri 03:17:27 PM 49.1549 -120.7650 45° Northeast 480 552 32,400 1,297 Climbing FlightAware ADS-B
Fri 03:18:07 PM 49.2221 -120.6901 36° Northeast 469 540 33,000 424 Climbing FlightAware ADS-B (CYVR)
Fri 03:18:52 PM 49.2833 -120.6000 36° Northeast 470 541 33,000  Level Vancouver Center
Fri 03:19:52 PM 49.3833 -120.4833 37° Northeast 470 541 33,000  Level Vancouver Center
Fri 03:20:52 PM 49.5000 -120.3833 29° Northeast 470 541 33,000  Level Vancouver Center
Fri 03:21:52 PM 49.6000 -120.2667 37° Northeast 470 541 33,000  Level Vancouver Center
Fri 03:22:52 PM 49.7167 -120.1333 36° Northeast 470 541 33,000  Level Vancouver Center
Fri 03:23:52 PM 49.8167 -120.0167 37° Northeast 460 529 33,000  Level Vancouver Center
Fri 03:24:52 PM 49.9167 -119.9000 37° Northeast 470 541 33,000  Level Vancouver Center
Fri 03:25:52 PM 50.0333 -119.8000 29° Northeast 470 541 33,000  Level Vancouver Center
Fri 03:26:52 PM 50.1500 -119.6833 33° Northeast 470 541 33,000  Level Vancouver Center
Fri 03:27:52 PM 50.2500 -119.5667 37° Northeast 470 541 33,000  Level Vancouver Center
Fri 03:28:52 PM 50.3500 -119.4500 37° Northeast 470 541 33,000  Level Vancouver Center
Fri 03:29:52 PM 50.4667 -119.3333 32° Northeast 470 541 33,000  Level Vancouver Center
Fri 03:30:52 PM 50.5667 -119.2167 37° Northeast 470 541 33,000  Level Vancouver Center
Fri 03:31:52 PM 50.6833 -119.1000 32° Northeast 470 541 33,000  Level Vancouver Center
Fri 03:32:52 PM 50.7667 -118.9833 42° Northeast 470 541 33,000  Level Vancouver Center
Fri 03:33:52 PM 50.8833 -118.8500 36° Northeast 470 541 33,000  Level Vancouver Center
Fri 03:34:38 PM 50.9500 -118.8167 17° North 470 541 33,000  Level Edmonton Center
Fri 03:35:38 PM 51.0667 -118.7000 32° Northeast 470 541 33,000  Level Edmonton Center
Fri 03:36:38 PM 51.1667 -118.5833 36° Northeast 470 541 33,000  Level Edmonton Center
Fri 03:37:38 PM 51.2833 -118.4667 32° Northeast 470 541 33,000  Level Edmonton Center
Fri 03:38:38 PM 51.3833 -118.3333 40° Northeast 470 541 33,000  Level Edmonton Center
Fri 03:39:38 PM 51.5000 -118.2000 35° Northeast 470 541 33,000  Level Edmonton Center
Fri 03:40:38 PM 51.6000 -118.1000 32° Northeast 470 541 33,000  Level Edmonton Center
Fri 03:41:38 PM 51.7000 -117.9333 46° Northeast 470 541 33,000  Level Edmonton Center
Fri 03:42:38 PM 51.8167 -117.8333 28° Northeast 480 552 33,000  Level Edmonton Center
Fri 03:43:38 PM 51.9167 -117.7000 39° Northeast 480 552 33,000  Level Edmonton Center
Fri 03:44:38 PM 52.0333 -117.5667 35° Northeast 480 552 33,000  Level Edmonton Center
Fri 03:45:38 PM 52.1333 -117.4500 36° Northeast 480 552 33,000  Level Edmonton Center
Fri 03:46:38 PM 52.2333 -117.2833 46° Northeast 480 552 33,000  Level Edmonton Center
Fri 03:47:38 PM 52.3500 -117.1833 28° Northeast 480 552 33,000  Level Edmonton Center
Fri 03:48:38 PM 52.4500 -117.0500 39° Northeast 470 541 33,000  Level Edmonton Center
Fri 03:49:38 PM 52.5500 -116.9000 42° Northeast 480 552 33,000  Level Edmonton Center
Fri 03:50:38 PM 52.6667 -116.7667 35° Northeast 470 541 33,000  Level Edmonton Center
Fri 03:51:38 PM 52.7667 -116.6500 35° Northeast 470 541 33,000  Level Edmonton Center
Fri 03:52:38 PM 52.8667 -116.5167 39° Northeast 470 541 33,000  Level Edmonton Center
Fri 03:58:50 PM 53.2090 -116.0894 39° Northeast 483 556 33,000  Level FlightAware ADS-B
Fri 04:02:03 PM 53.9047 -115.1726 38° Northeast 483 556 33,000  Level FlightAware ADS-B (CYED)
Fri 04:02:58 PM 54.0011 -115.0428 38° Northeast 483 556 33,000  Level FlightAware ADS-B (CYED)
Fri 04:03:29 PM 54.0551 -114.9693 39° Northeast 483 556 33,000  Level FlightAware ADS-B (CYED)
Fri 04:04:09 PM 54.1244 -114.8749 39° Northeast 483 556 33,000  Level FlightAware ADS-B (CYED)
Fri 04:04:49 PM 54.1937 -114.7801 39° Northeast 483 556 33,000  Level FlightAware ADS-B (CYED)
Fri 04:05:19 PM 54.2451 -114.7094 39° Northeast 483 556 33,000  Level FlightAware ADS-B (CYED)
Fri 04:05:53 PM 54.3039 -114.6284 39° Northeast 484 557 33,000  Level FlightAware ADS-B
Fri 04:06:23 PM 54.3562 -114.5562 39° Northeast 485 558 33,000  Level FlightAware ADS-B
Fri 04:07:05 PM 54.4288 -114.4552 39° Northeast 484 557 33,000  Level FlightAware ADS-B
Fri 04:07:38 PM 54.4867 -114.3746 39° Northeast 483 556 33,000  Level FlightAware ADS-B
Fri 04:08:53 PM 54.6132 -114.1970 39° Northeast 483 556 33,000  Level FlightAware ADS-B
Fri 04:09:38 PM 54.6667 -114.1167 39° Northeast 480 552 33,000  Level Edmonton Center
Fri 04:10:38 PM 54.7667 -113.9667 41° Northeast 480 552 33,000  Level Edmonton Center
Fri 04:11:38 PM 54.8667 -113.8167 41° Northeast 480 552 33,000  Level Edmonton Center
Fri 04:12:38 PM 54.9833 -113.6500 39° Northeast 480 552 33,000  Level Edmonton Center
Fri 04:13:38 PM 55.0833 -113.5333 34° Northeast 480 552 33,000  Level Edmonton Center
Fri 04:14:38 PM 55.1833 -113.3833 41° Northeast 480 552 33,000  Level Edmonton Center
Fri 04:15:38 PM 55.2833 -113.2167 43° Northeast 480 552 33,000  Level Edmonton Center
Fri 04:16:38 PM 55.4000 -113.0667 36° Northeast 480 552 33,000  Level Edmonton Center
Fri 04:17:38 PM 55.4833 -112.9000 49° Northeast 480 552 33,000  Level Edmonton Center
Fri 04:18:38 PM 55.6000 -112.7500 36° Northeast 480 552 33,000  Level Edmonton Center
Fri 04:19:38 PM 55.7000 -112.6167 37° Northeast 480 552 33,000  Level Edmonton Center
Fri 04:20:38 PM 55.8167 -112.4500 39° Northeast 480 552 33,000  Level Edmonton Center
Fri 04:21:38 PM 55.9000 -112.2833 48° Northeast 480 552 33,000  Level Edmonton Center
Fri 04:22:38 PM 56.0167 -112.1333 36° Northeast 480 552 33,000  Level Edmonton Center
Fri 04:23:38 PM 56.1167 -111.9667 43° Northeast 480 552 33,000  Level Edmonton Center
Fri 04:24:38 PM 56.2000 -111.8333 42° Northeast 480 552 33,000  Level Edmonton Center
Fri 04:25:38 PM 56.3167 -111.6333 44° Northeast 480 552 33,000  Level Edmonton Center
Fri 04:26:38 PM 56.4167 -111.5000 36° Northeast 480 552 33,000  Level Edmonton Center
Fri 04:27:38 PM 56.5000 -111.3333 48° Northeast 470 541 33,000  Level Edmonton Center
Fri 04:28:38 PM 56.6167 -111.1667 38° Northeast 480 552 33,000  Level Edmonton Center
Fri 04:29:38 PM 56.7000 -110.9833 50° Northeast 490 564 33,000  Level Edmonton Center
Fri 04:30:38 PM 56.8167 -110.8167 38° Northeast 490 564 33,000  Level Edmonton Center
Fri 04:31:38 PM 56.9167 -110.6500 42° Northeast 490 564 33,000  Level Edmonton Center
Fri 04:32:38 PM 57.0167 -110.5167 36° Northeast 490 564 33,000  Level Edmonton Center
Fri 04:33:38 PM 57.1333 -110.3167 43° Northeast 490 564 33,000  Level Edmonton Center
Fri 04:34:38 PM 57.2167 -110.1667 44° Northeast 490 564 33,000  Level Edmonton Center
Fri 04:35:38 PM 57.3333 -109.9667 43° Northeast 490 564 33,000  Level Edmonton Center
Fri 04:36:38 PM 57.4167 -109.7833 50° Northeast 490 564 33,000  Level Edmonton Center
Fri 04:37:38 PM 57.5167 -109.6333 39° Northeast 490 564 33,000  Level Edmonton Center
Fri 04:38:38 PM 57.6167 -109.4333 47° Northeast 490 564 33,000  Level Edmonton Center
Fri 04:39:38 PM 57.7333 -109.2833 34° Northeast 490 564 33,000  Level Edmonton Center
Fri 04:40:38 PM 57.8167 -109.0667 54° Northeast 480 552 33,000  Level Edmonton Center
Fri 04:41:38 PM 57.9167 -108.9167 39° Northeast 470 541 33,000  Level Edmonton Center
Fri 04:42:38 PM 58.0167 -108.7333 44° Northeast 470 541 33,000  Level Edmonton Center
Fri 04:43:38 PM 58.1167 -108.5500 44° Northeast 470 541 33,000  Level Edmonton Center
Fri 04:44:38 PM 58.2167 -108.3833 41° Northeast 470 541 33,000  Level Edmonton Center
Fri 04:45:38 PM 58.3000 -108.1833 52° Northeast 470 541 33,000  Level Edmonton Center
Fri 04:46:38 PM 58.4000 -108.0333 38° Northeast 470 541 33,000  Level Edmonton Center
Fri 04:47:38 PM 58.5000 -107.8500 44° Northeast 470 541 33,000  Level Edmonton Center
Fri 04:48:38 PM 58.5833 -107.6667 49° Northeast 480 552 33,000  Level Edmonton Center
Fri 04:49:38 PM 58.6833 -107.4667 46° Northeast 480 552 33,000  Level Edmonton Center
Fri 04:50:38 PM 58.7833 -107.3167 38° Northeast 480 552 33,000  Level Edmonton Center
Fri 04:51:38 PM 58.8667 -107.1333 49° Northeast 470 541 33,000  Level Edmonton Center
Fri 04:52:38 PM 58.9667 -106.9333 46° Northeast 470 541 33,000  Level Edmonton Center
Fri 04:53:38 PM 59.0667 -106.7333 46° Northeast 470 541 33,000  Level Edmonton Center
Fri 04:54:38 PM 59.1500 -106.5833 43° Northeast 470 541 33,000  Level Edmonton Center
Fri 04:55:38 PM 59.2333 -106.3833 51° Northeast 470 541 33,000  Level Edmonton Center
Fri 04:56:38 PM 59.3167 -106.1833 51° Northeast 470 541 33,000  Level Edmonton Center
Fri 04:57:38 PM 59.4333 -106.0000 39° Northeast 470 541 33,000  Level Edmonton Center
Fri 04:58:38 PM 59.5167 -105.8333 45° Northeast 480 552 33,000  Level Edmonton Center
Fri 04:59:38 PM 59.6167 -105.6333 45° Northeast 480 552 33,000  Level Edmonton Center
Fri 05:00:38 PM 59.7000 -105.4333 50° Northeast 480 552 33,000  Level Edmonton Center
Fri 05:01:38 PM 59.8000 -105.2333 45° Northeast 480 552 33,000  Level Edmonton Center
Fri 05:02:38 PM 59.8833 -105.0333 50° Northeast 480 552 33,000  Level Edmonton Center
Fri 05:03:38 PM 60.0000 -104.8167 43° Northeast 480 552 33,000  Level Edmonton Center
Fri 05:04:38 PM 60.0833 -104.6167 50° Northeast 480 552 33,000  Level Edmonton Center
Fri 05:05:38 PM 60.1833 -104.4167 45° Northeast 480 552 33,000  Level Edmonton Center
Fri 05:06:38 PM 60.2667 -104.2333 47° Northeast 480 552 33,000  Level Edmonton Center
Fri 05:07:38 PM 60.3667 -104.0333 45° Northeast 480 552 33,000  Level Edmonton Center
Fri 05:08:38 PM 60.4500 -103.8167 52° Northeast 480 552 33,000  Level Edmonton Center
Fri 05:09:38 PM 60.5333 -103.6167 50° Northeast 480 552 33,000  Level Edmonton Center
Fri 05:10:38 PM 60.6333 -103.4000 47° Northeast 480 552 33,000  Level Edmonton Center
Fri 05:11:38 PM 60.7167 -103.1833 52° Northeast 480 552 33,000  Level Edmonton Center
Fri 05:12:38 PM 60.8000 -102.9667 52° Northeast 480 552 33,000  Level Edmonton Center
Fri 05:13:38 PM 60.8833 -102.8000 44° Northeast 480 552 33,000  Level Edmonton Center
Fri 05:14:38 PM 60.9833 -102.5833 46° Northeast 480 552 33,000  Level Edmonton Center
Fri 05:15:38 PM 61.0667 -102.3667 51° Northeast 480 552 33,000  Level Edmonton Center
Fri 05:16:38 PM 61.1500 -102.1500 51° Northeast 480 552 33,000  Level Edmonton Center
Fri 05:17:38 PM 61.2500 -101.9167 48° Northeast 480 552 33,000  Level Edmonton Center
Fri 05:18:38 PM 61.3333 -101.7000 51° Northeast 480 552 33,000  Level Edmonton Center
Fri 05:19:38 PM 61.4167 -101.4833 51° Northeast 480 552 33,000  Level Edmonton Center
Fri 05:20:38 PM 61.5167 -101.2500 48° Northeast 480 552 33,000  Level Edmonton Center
Fri 05:21:38 PM 61.6000 -101.0333 51° Northeast 480 552 33,000  Level Edmonton Center
Fri 05:22:38 PM 61.6833 -100.8000 53° Northeast 480 552 33,000 12 Level Edmonton Center
Fri 05:24:00 PM 61.8206 -100.5280 43° Northeast  Level FlightAware Approximate
Fri 05:31:00 PM 62.5149 -99.0962 43° Northeast  Level FlightAware Approximate
Fri 05:32:00 PM 62.6129 -98.8863 45° Northeast  Level FlightAware Approximate
Fri 05:33:00 PM 62.7105 -98.6749 45° Northeast  Level FlightAware Approximate
Fri 05:34:00 PM 62.8079 -98.4622 45° Northeast  Level FlightAware Approximate
Fri 05:35:00 PM 62.9049 -98.2480 45° Northeast  Level FlightAware Approximate
Fri 05:36:00 PM 63.0016 -98.0324 45° Northeast  Level FlightAware Approximate
Fri 05:37:00 PM 63.0979 -97.8154 45° Northeast  Level FlightAware Approximate
Fri 05:38:00 PM 63.1939 -97.5969 46° Northeast  Level FlightAware Approximate
Fri 05:39:00 PM 63.2896 -97.3770 46° Northeast  Level FlightAware Approximate
Fri 05:40:00 PM 63.3850 -97.1556 46° Northeast  Level FlightAware Approximate
Fri 05:41:00 PM 63.4799 -96.9328 46° Northeast  Level FlightAware Approximate
Fri 05:42:00 PM 63.5746 -96.7085 46° Northeast  Level FlightAware Approximate
Fri 05:43:00 PM 63.6689 -96.4827 47° Northeast  Level FlightAware Approximate
Fri 05:44:00 PM 63.7628 -96.2553 47° Northeast  Level FlightAware Approximate
Fri 05:45:00 PM 63.8564 -96.0265 47° Northeast  Level FlightAware Approximate
Fri 05:46:00 PM 63.9496 -95.7961 47° Northeast  Level FlightAware Approximate
Fri 05:47:00 PM 64.0424 -95.5642 47° Northeast  Level FlightAware Approximate
Fri 05:48:00 PM 64.1349 -95.3308 48° Northeast  Level FlightAware Approximate
Fri 05:49:00 PM 64.2270 -95.0958 48° Northeast  Level FlightAware Approximate
Fri 05:50:00 PM 64.3187 -94.8592 48° Northeast  Level FlightAware Approximate
Fri 05:51:00 PM 64.4101 -94.6211 48° Northeast  Level FlightAware Approximate
Fri 05:52:00 PM 64.5010 -94.3813 49° Northeast  Level FlightAware Approximate
Fri 05:53:00 PM 64.5916 -94.1400 49° Northeast  Level FlightAware Approximate
Fri 05:54:00 PM 64.6817 -93.8971 49° Northeast  Level FlightAware Approximate
Fri 05:55:00 PM 64.7715 -93.6525 49° Northeast  Level FlightAware Approximate
Fri 05:56:00 PM 64.8608 -93.4064 49° Northeast  Level FlightAware Approximate
Fri 05:57:00 PM 64.9498 -93.1585 50° Northeast  Level FlightAware Approximate
Fri 05:58:00 PM 65.0383 -92.9091 50° Northeast  Level FlightAware Approximate
Fri 05:59:00 PM 65.1264 -92.6580 50° Northeast  Level FlightAware Approximate
Fri 06:00:00 PM 65.2141 -92.4052 50° Northeast  Level FlightAware Approximate
Fri 06:01:00 PM 65.3013 -92.1507 51° Northeast  Level FlightAware Approximate
Fri 06:02:00 PM 65.3882 -91.8945 51° Northeast  Level FlightAware Approximate
Fri 06:03:00 PM 65.4745 -91.6367 51° Northeast  Level FlightAware Approximate
Fri 06:04:00 PM 65.5605 -91.3771 51° Northeast  Level FlightAware Approximate
Fri 06:05:00 PM 65.6460 -91.1159 51° Northeast  Level FlightAware Approximate
Fri 06:06:00 PM 65.7310 -90.8529 52° Northeast  Level FlightAware Approximate
Fri 06:07:00 PM 65.8157 -90.5881 52° Northeast  Level FlightAware Approximate
Fri 06:08:00 PM 65.8998 -90.3216 52° Northeast  Level FlightAware Approximate
Fri 06:09:00 PM 65.9835 -90.0534 52° Northeast  Level FlightAware Approximate
Fri 06:10:00 PM 66.0605 -89.7727 57° Northeast  Level FlightAware Approximate
Fri 06:11:00 PM 66.1355 -89.4877 57° Northeast  Level FlightAware Approximate
Fri 06:12:00 PM 66.2099 -89.2010 57° Northeast  Level FlightAware Approximate
Fri 06:13:00 PM 66.2838 -88.9126 57° Northeast  Level FlightAware Approximate
Fri 06:14:00 PM 66.3585 -88.6245 57° Northeast  Level FlightAware Approximate
Fri 06:15:00 PM 66.4335 -88.3362 57° Northeast  Level FlightAware Approximate
Fri 06:16:00 PM 66.5080 -88.0462 57° Northeast  Level FlightAware Approximate
Fri 06:17:00 PM 66.5820 -87.7545 57° Northeast  Level FlightAware Approximate
Fri 06:18:00 PM 66.6550 -87.4604 59° Northeast  Level FlightAware Approximate
Fri 06:19:00 PM 66.7264 -87.1628 59° Northeast  Level FlightAware Approximate
Fri 06:20:00 PM 66.7972 -86.8635 59° Northeast  Level FlightAware Approximate
Fri 06:21:00 PM 66.8674 -86.5625 59° Northeast  Level FlightAware Approximate
Fri 06:22:00 PM 66.9371 -86.2598 59° Northeast  Level FlightAware Approximate
Fri 06:23:00 PM 67.0062 -85.9553 60° Northeast  Level FlightAware Approximate
Fri 06:24:00 PM 67.0747 -85.6491 60° Northeast  Level FlightAware Approximate
Fri 06:25:00 PM 67.1425 -85.3412 60° Northeast  Level FlightAware Approximate
Fri 06:26:00 PM 67.2099 -85.0316 61° Northeast  Level FlightAware Approximate
Fri 06:27:00 PM 67.2750 -84.7180 62° Northeast  Level FlightAware Approximate
Fri 06:28:00 PM 67.3394 -84.4025 62° Northeast  Level FlightAware Approximate
Fri 06:29:00 PM 67.4048 -84.0876 61° Northeast  Level FlightAware Approximate
Fri 06:30:00 PM 67.4700 -83.7715 62° Northeast  Level FlightAware Approximate
Fri 06:31:00 PM 67.5345 -83.4537 62° Northeast  Level FlightAware Approximate
Fri 06:32:00 PM 67.5984 -83.1341 62° Northeast  Level FlightAware Approximate
Fri 06:33:00 PM 67.6617 -82.8128 62° Northeast  Level FlightAware Approximate
Fri 06:34:00 PM 67.7243 -82.4897 63° Northeast  Level FlightAware Approximate
Fri 06:35:00 PM 67.7863 -82.1650 63° Northeast  Level FlightAware Approximate
Fri 06:36:00 PM 67.8476 -81.8385 63° Northeast  Level FlightAware Approximate
Fri 06:37:00 PM 67.9083 -81.5103 64° Northeast  Level FlightAware Approximate
Fri 06:38:00 PM 67.9684 -81.1805 64° Northeast  Level FlightAware Approximate
Fri 06:39:00 PM 68.0277 -80.8489 64° Northeast  Level FlightAware Approximate
Fri 06:40:00 PM 68.0865 -80.5156 65° Northeast  Level FlightAware Approximate
Fri 06:41:00 PM 68.1448 -80.1810 65° Northeast  Level FlightAware Approximate
Fri 06:42:00 PM 68.2025 -79.8448 65° Northeast  Level FlightAware Approximate
Fri 06:43:00 PM 68.2595 -79.5068 65° Northeast  Level FlightAware Approximate
Fri 06:44:00 PM 68.3158 -79.1672 66° East  Level FlightAware Approximate
Fri 06:45:00 PM 68.3714 -78.8259 66° East  Level FlightAware Approximate
Fri 06:46:00 PM 68.4264 -78.4830 66° East  Level FlightAware Approximate
Fri 06:47:00 PM 68.4806 -78.1384 67° East  Level FlightAware Approximate
Fri 06:48:00 PM 68.5341 -77.7921 67° East  Level FlightAware Approximate
Fri 06:49:00 PM 68.5869 -77.4442 67° East  Level FlightAware Approximate
Fri 06:50:00 PM 68.6389 -77.0947 68° East  Level FlightAware Approximate
Fri 06:51:00 PM 68.6903 -76.7435 68° East  Level FlightAware Approximate
Fri 06:52:00 PM 68.7409 -76.3908 68° East  Level FlightAware Approximate
Fri 06:53:00 PM 68.7907 -76.0364 69° East  Level FlightAware Approximate
Fri 06:54:00 PM 68.8399 -75.6805 69° East  Level FlightAware Approximate
Fri 06:55:00 PM 68.8883 -75.3230 69° East  Level FlightAware Approximate
Fri 06:56:00 PM 68.9359 -74.9640 70° East  Level FlightAware Approximate
Fri 06:57:00 PM 68.9828 -74.6034 70° East  Level FlightAware Approximate
Fri 06:58:00 PM 69.0289 -74.2413 70° East  Level FlightAware Approximate
Fri 06:59:00 PM 69.0742 -73.8776 71° East  Level FlightAware Approximate
Fri 07:00:00 PM 69.1188 -73.5125 71° East  Level FlightAware Approximate
Fri 07:01:00 PM 69.1626 -73.1459 71° East  Level FlightAware Approximate
Fri 07:02:00 PM 69.2056 -72.7779 72° East  Level FlightAware Approximate
Fri 07:03:00 PM 69.2478 -72.4084 72° East  Level FlightAware Approximate
Fri 07:04:00 PM 69.2892 -72.0374 72° East  Level FlightAware Approximate
Fri 07:05:00 PM 69.3298 -71.6651 73° East  Level FlightAware Approximate
Fri 07:06:00 PM 69.3696 -71.2914 73° East  Level FlightAware Approximate
Fri 07:07:00 PM 69.4087 -70.9163 73° East  Level FlightAware Approximate
Fri 07:08:00 PM 69.4469 -70.5398 74° East  Level FlightAware Approximate
Fri 07:09:00 PM 69.4843 -70.1620 74° East  Level FlightAware Approximate
Fri 07:10:00 PM 69.5179 -69.7809 77° East  Level FlightAware Approximate
Fri 07:11:00 PM 69.5485 -69.3970 77° East  Level FlightAware Approximate
Fri 07:12:00 PM 69.5783 -69.0120 77° East  Level FlightAware Approximate
Fri 07:13:00 PM 69.6072 -68.6259 78° East  Level FlightAware Approximate
Fri 07:14:00 PM 69.6353 -68.2388 78° East  Level FlightAware Approximate
Fri 07:15:00 PM 69.6625 -67.8507 78° East  Level FlightAware Approximate
Fri 07:16:00 PM 69.6888 -67.4616 79° East  Level FlightAware Approximate
Fri 07:17:00 PM 69.7143 -67.0716 79° East  Level FlightAware Approximate
Fri 07:18:00 PM 69.7389 -66.6807 80° East  Level FlightAware Approximate
Fri 07:19:00 PM 69.7627 -66.2888 80° East  Level FlightAware Approximate
Fri 07:20:00 PM 69.7856 -65.8961 80° East  Level FlightAware Approximate
Fri 07:21:00 PM 69.8076 -65.5026 81° East  Level FlightAware Approximate
Fri 07:22:00 PM 69.8287 -65.1082 81° East  Level FlightAware Approximate
Fri 07:23:00 PM 69.8490 -64.7131 81° East  Level FlightAware Approximate
Fri 07:24:00 PM 69.8683 -64.3172 82° East  Level FlightAware Approximate
Fri 07:25:00 PM 69.8868 -63.9206 82° East  Level FlightAware Approximate
Fri 07:26:00 PM 69.9044 -63.5233 82° East  Level FlightAware Approximate
Fri 07:27:00 PM 69.9199 -63.1251 84° East  Level FlightAware Approximate
Fri 07:28:00 PM 69.9332 -62.7258 84° East  Level FlightAware Approximate
Fri 07:29:00 PM 69.9456 -62.3261 85° East  Level FlightAware Approximate
Fri 07:30:00 PM 69.9572 -61.9259 85° East  Level FlightAware Approximate
Fri 07:31:00 PM 69.9678 -61.5252 85° East  Level FlightAware Approximate
Fri 07:32:00 PM 69.9775 -61.1242 86° East  Level FlightAware Approximate
Fri 07:33:00 PM 69.9864 -60.7228 86° East  Level FlightAware Approximate
Fri 07:34:00 PM 69.9943 -60.3211 87° East  Level FlightAware Approximate
Fri 07:35:00 PM 70.0023 -59.9193 85° East  Level FlightAware Approximate
Fri 07:36:00 PM 70.0129 -59.5178 85° East  Level FlightAware Approximate
Fri 07:37:00 PM 70.0226 -59.1159 86° East  Level FlightAware Approximate
Fri 07:38:00 PM 70.0315 -58.7136 86° East  Level FlightAware Approximate
Fri 07:39:00 PM 70.0394 -58.3111 87° East  Level FlightAware Approximate
Fri 07:40:00 PM 70.0464 -57.9082 87° East  Level FlightAware Approximate
Fri 07:41:00 PM 70.0525 -57.5051 87° East  Level FlightAware Approximate
Fri 07:42:00 PM 70.0577 -57.1017 88° East  Level FlightAware Approximate
Fri 07:43:00 PM 70.0620 -56.6982 88° East  Level FlightAware Approximate
Fri 07:44:00 PM 70.0654 -56.2945 88° East  Level FlightAware Approximate
Fri 07:45:00 PM 70.0679 -55.8907 89° East  Level FlightAware Approximate
Fri 07:46:00 PM 70.0694 -55.4869 89° East  Level FlightAware Approximate
Fri 07:47:00 PM 70.0701 -55.0830 90° East  Level FlightAware Approximate
Fri 07:48:00 PM 70.0698 -54.6790 90° East  Level FlightAware Approximate
Fri 07:49:00 PM 70.0686 -54.2751 90° East  Level FlightAware Approximate
Fri 07:50:00 PM 70.0665 -53.8713 91° East  Level FlightAware Approximate
Fri 07:51:00 PM 70.0635 -53.4676 91° East  Level FlightAware Approximate
Fri 07:52:00 PM 70.0596 -53.0640 91° East  Level FlightAware Approximate
Fri 07:53:00 PM 70.0548 -52.6606 92° East  Level FlightAware Approximate
Fri 07:54:00 PM 70.0490 -52.2574 92° East  Level FlightAware Approximate
Fri 07:55:00 PM 70.0424 -51.8544 93° East  Level FlightAware Approximate
Fri 07:56:00 PM 70.0348 -51.4517 93° East  Level FlightAware Approximate
Fri 07:57:00 PM 70.0264 -51.0493 93° East  Level FlightAware Approximate
Fri 07:58:00 PM 70.0170 -50.6472 94° East  Level FlightAware Approximate
Fri 07:59:00 PM 70.0067 -50.2456 94° East  Level FlightAware Approximate
Fri 08:00:00 PM 70.0043 -49.8443 85° East  Level FlightAware Approximate
Fri 08:01:00 PM 70.0148 -49.4427 85° East  Level FlightAware Approximate
Fri 08:02:00 PM 70.0244 -49.0407 86° East  Level FlightAware Approximate
Fri 08:03:00 PM 70.0330 -48.6384 86° East  Level FlightAware Approximate
Fri 08:04:00 PM 70.0408 -48.2357 87° East  Level FlightAware Approximate
Fri 08:05:00 PM 70.0476 -47.8328 87° East  Level FlightAware Approximate
Fri 08:06:00 PM 70.0536 -47.4297 87° East  Level FlightAware Approximate
Fri 08:07:00 PM 70.0586 -47.0263 88° East  Level FlightAware Approximate
Fri 08:08:00 PM 70.0627 -46.6227 88° East  Level FlightAware Approximate
Fri 08:09:00 PM 70.0659 -46.2190 88° East  Level FlightAware Approximate
Fri 08:10:00 PM 70.0682 -45.8152 89° East  Level FlightAware Approximate
Fri 08:11:00 PM 70.0696 -45.4113 89° East  Level FlightAware Approximate
Fri 08:12:00 PM 70.0701 -45.0074 90° East  Level FlightAware Approximate
Fri 08:13:00 PM 70.0697 -44.6035 90° East  Level FlightAware Approximate
Fri 08:14:00 PM 70.0683 -44.1996 90° East  Level FlightAware Approximate
Fri 08:15:00 PM 70.0660 -43.7958 91° East  Level FlightAware Approximate
Fri 08:16:00 PM 70.0629 -43.3921 91° East  Level FlightAware Approximate
Fri 08:17:00 PM 70.0588 -42.9886 92° East  Level FlightAware Approximate
Fri 08:18:00 PM 70.0538 -42.5852 92° East  Level FlightAware Approximate
Fri 08:19:00 PM 70.0479 -42.1820 92° East  Level FlightAware Approximate
Fri 08:20:00 PM 70.0411 -41.7791 93° East  Level FlightAware Approximate
Fri 08:21:00 PM 70.0333 -41.3764 93° East  Level FlightAware Approximate
Fri 08:22:00 PM 70.0247 -40.9741 93° East  Level FlightAware Approximate
Fri 08:23:00 PM 70.0152 -40.5721 94° East  Level FlightAware Approximate
Fri 08:24:00 PM 70.0047 -40.1705 94° East  Level FlightAware Approximate
Fri 08:25:00 PM 69.9842 -39.7732 101° East  Level FlightAware Approximate
Fri 08:26:00 PM 69.9561 -39.3797 102° East  Level FlightAware Approximate
Fri 08:27:00 PM 69.9271 -38.9873 102° East  Level FlightAware Approximate
Fri 08:28:00 PM 69.8972 -38.5960 102° East  Level FlightAware Approximate
Fri 08:29:00 PM 69.8665 -38.2058 103° East  Level FlightAware Approximate
Fri 08:30:00 PM 69.8349 -37.8167 103° East  Level FlightAware Approximate
Fri 08:31:00 PM 69.8025 -37.4289 103° East  Level FlightAware Approximate
Fri 08:32:00 PM 69.7691 -37.0422 104° East  Level FlightAware Approximate
Fri 08:33:00 PM 69.7350 -36.6568 104° East  Level FlightAware Approximate
Fri 08:34:00 PM 69.7000 -36.2727 105° East  Level FlightAware Approximate
Fri 08:35:00 PM 69.6642 -35.8898 105° East  Level FlightAware Approximate
Fri 08:36:00 PM 69.6275 -35.5082 105° East  Level FlightAware Approximate
Fri 08:37:00 PM 69.5900 -35.1280 106° East  Level FlightAware Approximate
Fri 08:38:00 PM 69.5518 -34.7491 106° East  Level FlightAware Approximate
Fri 08:39:00 PM 69.5126 -34.3716 106° East  Level FlightAware Approximate
Fri 08:40:00 PM 69.4727 -33.9955 107° East  Level FlightAware Approximate
Fri 08:41:00 PM 69.4320 -33.6207 107° East  Level FlightAware Approximate
Fri 08:42:00 PM 69.3916 -33.2464 107° East  Level FlightAware Approximate
Fri 08:43:00 PM 69.3504 -32.8735 107° East  Level FlightAware Approximate
Fri 08:44:00 PM 69.3084 -32.5021 108° East  Level FlightAware Approximate
Fri 08:45:00 PM 69.2656 -32.1321 108° East  Level FlightAware Approximate
Fri 08:46:00 PM 69.2220 -31.7635 108° East  Level FlightAware Approximate
Fri 08:47:00 PM 69.1777 -31.3965 109° East  Level FlightAware Approximate
Fri 08:48:00 PM 69.1325 -31.0309 109° East  Level FlightAware Approximate
Fri 08:49:00 PM 69.0866 -30.6669 109° East  Level FlightAware Approximate
Fri 08:50:00 PM 69.0399 -30.3044 110° East  Level FlightAware Approximate
Fri 08:51:00 PM 68.9960 -29.9408 101° East  Level FlightAware Approximate
Fri 08:52:00 PM 68.9702 -29.5637 101° East  Level FlightAware Approximate
Fri 08:53:00 PM 68.9436 -29.1875 101° East  Level FlightAware Approximate
Fri 08:54:00 PM 68.9161 -28.8122 101° East  Level FlightAware Approximate
Fri 08:55:00 PM 68.8879 -28.4378 102° East  Level FlightAware Approximate
Fri 08:56:00 PM 68.8588 -28.0645 102° East  Level FlightAware Approximate
Fri 08:57:00 PM 68.8288 -27.6921 102° East  Level FlightAware Approximate
Fri 08:58:00 PM 68.7981 -27.3207 103° East  Level FlightAware Approximate
Fri 08:59:00 PM 68.7666 -26.9504 103° East  Level FlightAware Approximate
Fri 09:00:00 PM 68.7342 -26.5812 103° East  Level FlightAware Approximate
Fri 09:01:00 PM 68.7011 -26.2130 104° East  Level FlightAware Approximate
Fri 09:02:00 PM 68.6671 -25.8459 104° East  Level FlightAware Approximate
Fri 09:03:00 PM 68.6324 -25.4799 104° East  Level FlightAware Approximate
Fri 09:04:00 PM 68.5968 -25.1152 105° East  Level FlightAware Approximate
Fri 09:05:00 PM 68.5605 -24.7515 105° East  Level FlightAware Approximate
Fri 09:06:00 PM 68.5234 -24.3891 105° East  Level FlightAware Approximate
Fri 09:07:00 PM 68.4855 -24.0278 106° East  Level FlightAware Approximate
Fri 09:08:00 PM 68.4469 -23.6678 106° East  Level FlightAware Approximate
Fri 09:09:00 PM 68.4075 -23.3090 106° East  Level FlightAware Approximate
Fri 09:10:00 PM 68.3673 -22.9515 107° East  Level FlightAware Approximate
Fri 09:11:00 PM 68.3263 -22.5952 107° East  Level FlightAware Approximate
Fri 09:12:00 PM 68.2846 -22.2403 107° East  Level FlightAware Approximate
Fri 09:13:00 PM 68.2421 -21.8866 108° East  Level FlightAware Approximate
Fri 09:14:00 PM 68.1989 -21.5343 108° East  Level FlightAware Approximate
Fri 09:15:00 PM 68.1550 -21.1833 108° East  Level FlightAware Approximate
Fri 09:16:00 PM 68.1103 -20.8337 109° East  Level FlightAware Approximate
Fri 09:17:00 PM 68.0648 -20.4854 109° East  Level FlightAware Approximate
Fri 09:18:00 PM 68.0187 -20.1385 109° East  Level FlightAware Approximate
Fri 09:19:00 PM 67.9551 -19.8151 123° Southeast  Level FlightAware Approximate
Fri 09:20:00 PM 67.8799 -19.5085 123° Southeast  Level FlightAware Approximate
Fri 09:21:00 PM 67.8040 -19.2038 123° Southeast  Level FlightAware Approximate
Fri 09:22:00 PM 67.7276 -18.9011 124° Southeast  Level FlightAware Approximate
Fri 09:23:00 PM 67.6506 -18.6004 124° Southeast  Level FlightAware Approximate
Fri 09:24:00 PM 67.5731 -18.3017 124° Southeast  Level FlightAware Approximate
Fri 09:25:00 PM 67.4961 -18.0030 123° Southeast  Level FlightAware Approximate
Fri 09:26:00 PM 67.4196 -17.7044 124° Southeast  Level FlightAware Approximate
Fri 09:27:00 PM 67.3425 -17.4077 124° Southeast  Level FlightAware Approximate
Fri 09:28:00 PM 67.2650 -17.1129 124° Southeast  Level FlightAware Approximate
Fri 09:29:00 PM 67.1868 -16.8201 124° Southeast  Level FlightAware Approximate
Fri 09:30:00 PM 67.1077 -16.5300 125° Southeast  Level FlightAware Approximate
Fri 09:31:00 PM 67.0275 -16.2427 125° Southeast  Level FlightAware Approximate
Fri 09:32:00 PM 66.9468 -15.9573 126° Southeast  Level FlightAware Approximate
Fri 09:33:00 PM 66.8656 -15.6738 126° Southeast  Level FlightAware Approximate
Fri 09:34:00 PM 66.7839 -15.3922 126° Southeast  Level FlightAware Approximate
Fri 09:35:00 PM 66.7017 -15.1125 127° Southeast  Level FlightAware Approximate
Fri 09:36:00 PM 66.6190 -14.8346 127° Southeast  Level FlightAware Approximate
Fri 09:37:00 PM 66.5359 -14.5585 127° Southeast  Level FlightAware Approximate
Fri 09:38:00 PM 66.4522 -14.2844 127° Southeast  Level FlightAware Approximate
Fri 09:39:00 PM 66.3681 -14.0120 128° Southeast  Level FlightAware Approximate
Fri 09:40:00 PM 66.2835 -13.7415 128° Southeast  Level FlightAware Approximate
Fri 09:41:00 PM 66.1984 -13.4728 128° Southeast  Level FlightAware Approximate
Fri 09:42:00 PM 66.1129 -13.2059 128° Southeast  Level FlightAware Approximate
Fri 09:43:00 PM 66.0269 -12.9408 129° Southeast  Level FlightAware Approximate
Fri 09:44:00 PM 65.9405 -12.6775 129° Southeast  Level FlightAware Approximate
Fri 09:45:00 PM 65.8536 -12.4159 129° Southeast  Level FlightAware Approximate
Fri 09:46:00 PM 65.7663 -12.1561 129° Southeast  Level FlightAware Approximate
Fri 09:47:00 PM 65.6785 -11.8981 129° Southeast  Level FlightAware Approximate
Fri 09:48:00 PM 65.5903 -11.6419 130° Southeast  Level FlightAware Approximate
Fri 09:49:00 PM 65.5016 -11.3874 130° Southeast  Level FlightAware Approximate
Fri 09:50:00 PM 65.4126 -11.1346 130° Southeast  Level FlightAware Approximate
Fri 09:51:00 PM 65.3231 -10.8835 130° Southeast  Level FlightAware Approximate
Fri 09:52:00 PM 65.2332 -10.6341 131° Southeast  Level FlightAware Approximate
Fri 09:53:00 PM 65.1429 -10.3864 131° Southeast  Level FlightAware Approximate
Fri 09:54:00 PM 65.0522 -10.1404 131° Southeast  Level FlightAware Approximate
Fri 09:55:00 PM 64.9646 -9.8893 127° Southeast  Level FlightAware Approximate
Fri 09:56:00 PM 64.8812 -9.6308 127° Southeast  Level FlightAware Approximate
Fri 09:57:00 PM 64.7974 -9.3739 127° Southeast  Level FlightAware Approximate
Fri 09:58:00 PM 64.7131 -9.1186 128° Southeast  Level FlightAware Approximate
Fri 09:59:00 PM 64.6284 -8.8648 128° Southeast  Level FlightAware Approximate
Fri 10:00:00 PM 64.5433 -8.6127 128° Southeast  Level FlightAware Approximate
Fri 10:01:00 PM 64.4581 -8.3614 128° Southeast  Level FlightAware Approximate
Fri 10:02:00 PM 64.3726 -8.1116 128° Southeast  Level FlightAware Approximate
Fri 10:03:00 PM 64.2866 -7.8633 129° Southeast  Level FlightAware Approximate
Fri 10:04:00 PM 64.2003 -7.6166 129° Southeast  Level FlightAware Approximate
Fri 10:05:00 PM 64.1135 -7.3714 129° Southeast  Level FlightAware Approximate
Fri 10:06:00 PM 64.0263 -7.1277 129° Southeast  Level FlightAware Approximate
Fri 10:07:00 PM 63.9386 -6.8856 129° Southeast  Level FlightAware Approximate
Fri 10:08:00 PM 63.8506 -6.6449 130° Southeast  Level FlightAware Approximate
Fri 10:09:00 PM 63.7622 -6.4058 130° Southeast  Level FlightAware Approximate
Fri 10:10:00 PM 63.6734 -6.1682 130° Southeast  Level FlightAware Approximate
Fri 10:11:00 PM 63.5842 -5.9321 130° Southeast  Level FlightAware Approximate
Fri 10:12:00 PM 63.4947 -5.6974 130° Southeast  Level FlightAware Approximate
Fri 10:13:00 PM 63.4047 -5.4642 131° Southeast  Level FlightAware Approximate
Fri 10:14:00 PM 63.3144 -5.2325 131° Southeast  Level FlightAware Approximate
Fri 10:15:00 PM 63.2236 -5.0022 131° Southeast  Level FlightAware Approximate
Fri 10:16:00 PM 63.1326 -4.7734 131° Southeast  Level FlightAware Approximate
Fri 10:17:00 PM 63.0411 -4.5460 132° Southeast  Level FlightAware Approximate
Fri 10:18:00 PM 62.9493 -4.3200 132° Southeast  Level FlightAware Approximate
Fri 10:19:00 PM 62.8571 -4.0954 132° Southeast  Level FlightAware Approximate
Fri 10:20:00 PM 62.7646 -3.8723 132° Southeast  Level FlightAware Approximate
Fri 10:21:00 PM 62.6717 -3.6505 132° Southeast  Level FlightAware Approximate
Fri 10:22:00 PM 62.5785 -3.4302 133° Southeast  Level FlightAware Approximate
Fri 10:23:00 PM 62.4850 -3.2112 133° Southeast  Level FlightAware Approximate
Fri 10:24:00 PM 62.3910 -2.9936 133° Southeast  Level FlightAware Approximate
Fri 10:25:00 PM 62.2968 -2.7773 133° Southeast  Level FlightAware Approximate
Fri 10:26:00 PM 62.2022 -2.5624 133° Southeast  Level FlightAware Approximate
Fri 10:27:00 PM 62.1073 -2.3489 133° Southeast  Level FlightAware Approximate
Fri 10:28:00 PM 62.0121 -2.1367 134° Southeast  Level FlightAware Approximate
Fri 10:29:00 PM 61.9165 -1.9258 134° Southeast  Level FlightAware Approximate
Fri 10:30:00 PM 61.8206 -1.7162 134° Southeast  Level FlightAware Approximate
Fri 10:31:00 PM 61.7244 -1.5079 134° Southeast  Level FlightAware Approximate
Fri 10:32:00 PM 61.6279 -1.3010 134° Southeast  Level FlightAware Approximate
Fri 10:33:00 PM 61.5311 -1.0953 135° Southeast  Level FlightAware Approximate
Fri 10:34:00 PM 61.4340 -0.8909 135° Southeast  Level FlightAware Approximate
Fri 10:35:00 PM 61.3366 -0.6877 135° Southeast  Level FlightAware Approximate
Fri 10:36:00 PM 61.2389 -0.4858 135° Southeast  Level FlightAware Approximate
Fri 10:37:00 PM 61.1409 -0.2851 135° Southeast  Level FlightAware Approximate
Fri 10:38:00 PM 61.0425 -0.0857 135° Southeast  Level FlightAware Approximate
Fri 10:39:00 PM 60.9592 0.1376 121° Southeast  Level FlightAware Approximate
Fri 10:40:00 PM 60.8870 0.3788 122° Southeast  Level FlightAware Approximate
Fri 10:41:00 PM 60.8144 0.6190 122° Southeast  Level FlightAware Approximate
Fri 10:42:00 PM 60.7413 0.8580 122° Southeast  Level FlightAware Approximate
Fri 10:43:00 PM 60.6678 1.0960 122° Southeast  Level FlightAware Approximate
Fri 10:44:00 PM 60.5939 1.3329 122° Southeast  Level FlightAware Approximate
Fri 10:45:00 PM 60.5211 1.5706 122° Southeast  Level FlightAware Approximate
Fri 10:46:00 PM 60.4482 1.8076 122° Southeast  Level FlightAware Approximate
Fri 10:47:00 PM 60.3748 2.0436 122° Southeast  Level FlightAware Approximate
Fri 10:48:00 PM 60.3010 2.2784 122° Southeast  Level FlightAware Approximate
Fri 10:49:00 PM 60.2268 2.5122 123° Southeast  Level FlightAware Approximate
Fri 10:50:00 PM 60.1520 2.7448 123° Southeast  Level FlightAware Approximate
Fri 10:51:00 PM 60.0759 2.9751 123° Southeast  Level FlightAware Approximate
Fri 10:52:00 PM 59.9995 3.2044 124° Southeast  Level FlightAware Approximate
Fri 10:53:00 PM 59.9226 3.4326 124° Southeast  Level FlightAware Approximate
Fri 10:53:03 PM 60.4940 1.5483 124° Southeast 504 580 37,000  Level FlightAware ADS-B
Fri 10:54:35 PM 60.3736 1.9069 124° Southeast 504 580 37,000  Level FlightAware ADS-B
Fri 10:55:39 PM 60.2881 2.1578 124° Southeast 512 589 37,000  Level FlightAware ADS-B
Fri 10:56:53 PM 60.1874 2.4472 124° Southeast 508 585 37,000  Level FlightAware UK
Fri 10:57:29 PM 60.1399 2.5842 125° Southeast 508 585 37,000  Level FlightAware UK
Fri 10:58:00 PM 60.0984 2.7025 125° Southeast 508 585 37,000  Level FlightAware UK
Fri 10:58:35 PM 60.0522 2.8383 124° Southeast 508 585 37,000  Level FlightAware UK
Fri 10:59:05 PM 60.0111 2.9528 126° Southeast 512 589 37,000  Level FlightAware UK
Fri 10:59:35 PM 59.9702 3.0687 125° Southeast 514 592 37,000  Level FlightAware UK
Fri 11:00:05 PM 59.9292 3.1838 125° Southeast 514 592 37,000  Level FlightAware UK
Fri 11:00:41 PM 59.8806 3.3218 125° Southeast 516 594 37,000  Level FlightAware UK
Fri 11:01:12 PM 59.8378 3.4382 126° Southeast 516 594 37,000  Level FlightAware UK
Fri 11:01:42 PM 59.7955 3.5529 126° Southeast 514 592 37,000  Level FlightAware UK
Fri 11:02:12 PM 59.7537 3.6676 126° Southeast 512 589 37,000  Level FlightAware UK
Fri 11:02:42 PM 59.7112 3.7822 126° Southeast 512 589 37,000  Level FlightAware UK
Fri 11:03:12 PM 59.6696 3.8966 126° Southeast 510 587 37,000  Level FlightAware UK
Fri 11:03:48 PM 59.6206 4.0310 126° Southeast 508 585 37,000  Level FlightAware UK
Fri 11:04:18 PM 59.5789 4.1430 126° Southeast 506 582 37,000  Level FlightAware UK
Fri 11:04:48 PM 59.5372 4.2535 127° Southeast 506 582 37,000  Level FlightAware UK
Fri 11:05:18 PM 59.4961 4.3653 126° Southeast 506 582 37,000  Level FlightAware UK
Fri 11:05:48 PM 59.4556 4.4772 125° Southeast 506 582 37,000  Level FlightAware UK
Fri 11:06:24 PM 59.4056 4.6084 127° Southeast 506 582 37,000  Level FlightAware UK
Fri 11:06:54 PM 59.3638 4.7193 126° Southeast 508 585 37,000  Level FlightAware UK
Fri 11:07:31 PM 59.3124 4.8513 127° Southeast 508 585 37,000  Level FlightAware UK
Fri 11:08:06 PM 59.2618 4.9811 127° Southeast 506 582 37,000  Level FlightAware UK
Fri 11:08:37 PM 59.2180 5.0909 128° Southeast 504 580 37,000  Level FlightAware UK
Fri 11:09:07 PM 59.1754 5.2002 127° Southeast 506 582 37,000  Level FlightAware UK
Fri 11:09:37 PM 59.1329 5.3092 127° Southeast 504 580 37,000  Level FlightAware UK
Fri 11:10:07 PM 59.0903 5.4177 127° Southeast 504 580 37,000  Level FlightAware UK
Fri 11:10:37 PM 59.0477 5.5250 128° Southeast 502 578 37,000  Level FlightAware UK
Fri 11:11:13 PM 58.9963 5.6520 128° Southeast 502 578 37,000 82 Level FlightAware UK
Fri 11:34:55 PM 56.9920 10.6628 131° Southeast 506 582 39,000 83 Climbing FlightAware ADS-B (ETSF / FEL)
Fri 11:35:25 PM 56.9534 10.7625 125° Southeast 506 582 39,000  Level FlightAware ADS-B (ETSF / FEL)
Fri 11:35:55 PM 56.9120 10.8682 126° Southeast 508 585 39,000  Level FlightAware ADS-B (ETSF / FEL)
Fri 11:36:26 PM 56.8688 10.9791 125° Southeast 510 587 39,000  Level FlightAware ADS-B (ETSF / FEL)
Fri 11:37:25 PM 56.7870 11.1873 126° Southeast 509 586 39,000  Level FlightAware ADS-B (ETSF / FEL)
Fri 11:37:55 PM 56.7475 11.2871 126° Southeast 509 586 39,000  Level FlightAware ADS-B (ETSF / FEL)
Fri 11:38:25 PM 56.7048 11.3945 126° Southeast 510 587 39,000  Level FlightAware ADS-B (ETSF / FEL)
Fri 11:38:56 PM 56.6670 11.4891 126° Southeast 509 586 39,000  Level FlightAware ADS-B (ETSF / FEL)
Fri 11:39:26 PM 56.6219 11.6016 126° Southeast 509 586 39,000  Level FlightAware ADS-B (ETSF / FEL)
Fri 11:39:56 PM 56.5816 11.7018 126° Southeast 507 583 39,000  Level FlightAware ADS-B (ETSF / FEL)
Fri 11:40:26 PM 56.5394 11.8063 126° Southeast 506 582 39,000  Level FlightAware ADS-B (ETSF / FEL)
Fri 11:40:56 PM 56.4967 11.9115 126° Southeast 505 581 39,000  Level FlightAware ADS-B (ETSF / FEL)
Fri 11:41:38 PM 56.4393 12.0518 126° Southeast 502 578 39,000  Level FlightAware ADS-B
Fri 11:42:08 PM 56.3971 12.1547 127° Southeast 502 578 39,000  Level FlightAware ADS-B
Fri 11:42:39 PM 56.3549 12.2573 127° Southeast 501 577 39,000  Level FlightAware ADS-B
Fri 11:43:09 PM 56.3131 12.3584 127° Southeast 507 583 39,000  Level FlightAware ADS-B
Fri 11:43:52 PM 56.2518 12.5058 127° Southeast 510 587 39,000  Level FlightAware ADS-B
Fri 11:44:22 PM 56.2094 12.6071 127° Southeast 510 587 39,000  Level FlightAware ADS-B
Fri 11:44:53 PM 56.1659 12.7110 127° Southeast 510 587 39,000  Level FlightAware ADS-B
Fri 11:45:24 PM 56.1225 12.8137 127° Southeast 509 586 39,000  Level FlightAware ADS-B
Fri 11:45:56 PM 56.0744 12.9201 129° Southeast 507 583 39,000  Level FlightAware ADS-B (ETSF / FEL)
Fri 11:46:26 PM 56.0294 13.0115 131° Southeast 504 580 39,000  Level FlightAware ADS-B (ETSF / FEL)
Fri 11:46:56 PM 55.9818 13.1079 131° Southeast 502 578 39,000  Level FlightAware ADS-B (ETSF / FEL)
Fri 11:47:26 PM 55.9355 13.2015 131° Southeast 504 580 39,000  Level FlightAware ADS-B (ETSF / FEL)
Fri 11:47:57 PM 55.8885 13.2965 131° Southeast 504 580 39,000  Level FlightAware ADS-B (ETSF / FEL)
Fri 11:48:27 PM 55.8425 13.3889 132° Southeast 505 581 39,000  Level FlightAware ADS-B (ETSF / FEL)
Fri 11:48:57 PM 55.7967 13.4807 132° Southeast 506 582 39,000  Level FlightAware ADS-B (ETSF / FEL)
Fri 11:49:27 PM 55.7508 13.5722 132° Southeast 506 582 39,000  Level FlightAware ADS-B (ETSF / FEL)
Fri 11:50:28 PM 55.6555 13.7612 132° Southeast 504 580 39,000  Level FlightAware ADS-B (ETSF / FEL)
Fri 11:50:58 PM 55.6079 13.8548 132° Southeast 506 582 39,000  Level FlightAware ADS-B (ETSF / FEL)
Fri 11:51:29 PM 55.5617 13.9455 132° Southeast 507 583 39,000  Level FlightAware ADS-B (ETSF / FEL)
Fri 11:51:59 PM 55.5123 14.0422 132° Southeast 505 581 39,000  Level FlightAware ADS-B (ETSF / FEL)
Fri 11:52:29 PM 55.4675 14.1294 132° Southeast 501 577 39,000  Level FlightAware ADS-B (ETSF / FEL)
Fri 11:53:28 PM 55.3737 14.3111 132° Southeast 498 573 39,000  Level FlightAware ADS-B (ETSF / FEL)
Fri 11:53:59 PM 55.3266 14.4017 132° Southeast 499 574 39,000  Level FlightAware ADS-B (ETSF / FEL)
Fri 11:54:29 PM 55.2794 14.4923 132° Southeast 500 575 39,000  Level FlightAware ADS-B (ETSF / FEL)
Fri 11:54:59 PM 55.2361 14.5749 133° Southeast 498 573 39,000  Level FlightAware ADS-B (ETSF / FEL)
Fri 11:55:29 PM 55.1872 14.6682 133° Southeast 496 571 39,000  Level FlightAware ADS-B (ETSF / FEL)
Fri 11:56:29 PM 55.0939 14.8447 133° Southeast 498 573 39,000  Level FlightAware ADS-B (ETSF / FEL)
Fri 11:56:59 PM 55.0472 14.9327 133° Southeast 497 572 39,000  Level FlightAware ADS-B (ETSF / FEL)
Fri 11:57:29 PM 55.0003 15.0207 133° Southeast 495 570 39,000  Level FlightAware ADS-B (ETSF / FEL)
Fri 11:57:59 PM 54.9554 15.1043 133° Southeast 495 570 39,000  Level FlightAware ADS-B (ETSF / FEL)
Fri 11:58:58 PM 54.8620 15.2782 133° Southeast 497 572 39,000  Level FlightAware ADS-B (ETSF / FEL)
Fri 11:59:29 PM 54.8128 15.3693 133° Southeast 498 573 39,000  Level FlightAware ADS-B (ETSF / FEL)
Sat 12:00:11 AM 54.7455 15.4928 133° Southeast 497 572 39,000  Level FlightAware ADS-B
Sat 12:00:41 AM 54.7035 15.5696 133° Southeast 494 568 39,000  Level FlightAware ADS-B
Sat 12:01:28 AM 54.6274 15.7087 133° Southeast 492 566 39,000  Level FlightAware ADS-B (ETSF / FEL)
Sat 12:02:05 AM 54.5681 15.8163 134° Southeast 491 565 39,000  Level FlightAware ADS-B
Sat 12:02:45 AM 54.5050 15.9303 134° Southeast 492 566 39,000  Level FlightAware ADS-B
Sat 12:03:19 AM 54.4522 16.0252 134° Southeast 489 563 39,000  Level FlightAware ADS-B
Sat 12:03:49 AM 54.4084 16.1035 134° Southeast 489 563 39,000  Level FlightAware ADS-B
Sat 12:04:26 AM 54.3478 16.2117 134° Southeast 489 563 39,000  Level FlightAware ADS-B
Sat 12:04:59 AM 54.3031 16.2913 134° Southeast 489 563 39,000  Level FlightAware ADS-B (ETSF / FEL)
Sat 12:05:29 AM 54.2496 16.3859 134° Southeast 487 560 39,000  Level FlightAware ADS-B (ETSF / FEL)
Sat 12:06:01 AM 54.1997 16.4738 134° Southeast 486 559 39,000  Level FlightAware ADS-B
Sat 12:06:31 AM 54.1536 16.5550 134° Southeast 485 558 39,000  Level FlightAware ADS-B
Sat 12:07:10 AM 54.1128 16.6266 134° Southeast 484 557 39,000  Level FlightAware ADS-B
Sat 12:07:42 AM 54.0416 16.7508 134° Southeast 487 560 39,000  Level FlightAware ADS-B
Sat 12:08:28 AM 53.9719 16.8717 134° Southeast 487 560 39,000  Level FlightAware ADS-B
Sat 12:08:58 AM 53.9236 16.9554 134° Southeast 487 560 39,000  Level FlightAware ADS-B
Sat 12:09:28 AM 53.8794 17.0314 135° Southeast 487 560 39,000  Level FlightAware ADS-B
Sat 12:09:59 AM 53.8264 17.1225 135° Southeast 488 562 39,000  Level FlightAware ADS-B
Sat 12:10:30 AM 53.7796 17.2025 135° Southeast 488 562 39,000  Level FlightAware ADS-B (EPSY / SZY)
Sat 12:11:03 AM 53.7238 17.2978 135° Southeast 485 558 39,000  Level FlightAware ADS-B (EPSY / SZY)
Sat 12:11:33 AM 53.6799 17.3724 135° Southeast 487 560 39,000  Level FlightAware ADS-B (EPSY / SZY)
Sat 12:12:06 AM 53.6291 17.4582 135° Southeast 489 563 39,000  Level FlightAware ADS-B
Sat 12:12:39 AM 53.5733 17.5520 135° Southeast 489 563 39,000  Level FlightAware ADS-B (EPSY / SZY)
Sat 12:13:13 AM 53.5201 17.6415 135° Southeast 490 564 39,000  Level FlightAware ADS-B
Sat 12:13:43 AM 53.4704 17.7246 135° Southeast 491 565 39,000  Level FlightAware ADS-B
Sat 12:14:19 AM 53.4126 17.8213 135° Southeast 489 563 39,000  Level FlightAware ADS-B (EPSY / SZY)
Sat 12:14:51 AM 53.3612 17.9065 135° Southeast 491 565 39,000  Level FlightAware ADS-B (EPSY / SZY)
Sat 12:15:21 AM 53.3123 17.9874 135° Southeast 491 565 39,000  Level FlightAware ADS-B (EPSY / SZY)
Sat 12:15:52 AM 53.2629 18.0690 135° Southeast 492 566 39,000  Level FlightAware ADS-B
Sat 12:16:23 AM 53.2124 18.1519 135° Southeast 494 568 39,000  Level FlightAware ADS-B (EPSY / SZY)
Sat 12:16:54 AM 53.1624 18.2338 135° Southeast 494 568 39,000  Level FlightAware ADS-B (EPSY / SZY)
Sat 12:17:24 AM 53.1136 18.3134 136° Southeast 494 568 39,000  Level FlightAware ADS-B (EPSY / SZY)
Sat 12:18:00 AM 53.0566 18.4061 136° Southeast 494 568 39,000  Level FlightAware ADS-B
Sat 12:18:37 AM 52.9932 18.5086 136° Southeast 495 570 39,000  Level FlightAware ADS-B (EPSY / SZY)
Sat 12:19:08 AM 52.9464 18.5841 136° Southeast 495 570 39,000  Level FlightAware ADS-B
Sat 12:19:38 AM 52.8974 18.6631 136° Southeast 494 568 39,000  Level FlightAware ADS-B
Sat 12:20:13 AM 52.8379 18.7584 136° Southeast 493 567 39,000  Level FlightAware ADS-B
Sat 12:20:43 AM 52.7888 18.8367 136° Southeast 493 567 39,000  Level FlightAware ADS-B
Sat 12:21:15 AM 52.7371 18.9191 136° Southeast 494 568 39,000  Level FlightAware ADS-B
Sat 12:21:47 AM 52.6851 19.0016 136° Southeast 492 566 39,000  Level FlightAware ADS-B
Sat 12:22:17 AM 52.6347 19.0813 136° Southeast 492 566 39,000  Level FlightAware ADS-B
Sat 12:22:56 AM 52.5710 19.1817 136° Southeast 490 564 39,000  Level FlightAware ADS-B (EPSY / SZY)
Sat 12:23:35 AM 52.5111 19.2757 136° Southeast 492 566 39,000  Level FlightAware ADS-B (EPSY / SZY)
Sat 12:24:12 AM 52.4464 19.3764 136° Southeast 490 564 39,000  Level FlightAware ADS-B (EPSY / SZY)
Sat 12:24:42 AM 52.3973 19.4529 136° Southeast 490 564 39,000  Level FlightAware ADS-B (EPSY / SZY)
Sat 12:25:23 AM 52.3298 19.5572 137° Southeast 491 565 39,000  Level FlightAware ADS-B
Sat 12:25:56 AM 52.2769 19.6389 137° Southeast 490 564 39,000  Level FlightAware ADS-B (EPSY / SZY)
Sat 12:26:38 AM 52.2056 19.7485 137° Southeast 492 566 39,000  Level FlightAware ADS-B (EPSY / SZY)
Sat 12:27:08 AM 52.1559 19.8248 137° Southeast 490 564 39,000  Level FlightAware ADS-B (EPSY / SZY)
Sat 12:27:38 AM 52.1074 19.8990 137° Southeast 492 566 39,000  Level FlightAware ADS-B (EPSY / SZY)
Sat 12:28:08 AM 52.0563 19.9766 137° Southeast 493 567 39,000  Level FlightAware ADS-B (EPSY / SZY)
Sat 12:28:15 AM 52.0466 19.9912 137° Southeast 488 562 39,000  Level FlightAware ADS-B
Sat 12:28:48 AM 51.9953 20.0690 137° Southeast 495 570 39,000  Level FlightAware ADS-B
Sat 12:29:18 AM 51.9525 20.1337 137° Southeast 496 571 39,000  Level FlightAware ADS-B
Sat 12:29:54 AM 51.8811 20.2412 137° Southeast 497 572 39,000  Level FlightAware ADS-B
Sat 12:30:24 AM 51.8293 20.3188 137° Southeast 497 572 39,000  Level FlightAware ADS-B (EPSY / SZY)
Sat 12:30:54 AM 51.7792 20.3935 137° Southeast 496 571 39,000  Level FlightAware ADS-B
Sat 12:31:24 AM 51.7302 20.4666 137° Southeast 495 570 39,000  Level FlightAware ADS-B
Sat 12:31:58 AM 51.6725 20.5524 137° Southeast 496 571 39,000  Level FlightAware ADS-B
Sat 12:32:28 AM 51.6222 20.6266 137° Southeast 497 572 39,000  Level FlightAware ADS-B
Sat 12:32:59 AM 51.5688 20.7054 137° Southeast 498 573 39,000  Level FlightAware ADS-B (EPSY / SZY)
Sat 12:33:34 AM 51.5156 20.7837 138° Southeast 499 574 39,000  Level FlightAware ADS-B
Sat 12:34:04 AM 51.4626 20.8614 138° Southeast 499 574 39,000  Level FlightAware ADS-B
Sat 12:34:42 AM 51.3951 20.9599 138° Southeast 502 578 39,000  Level FlightAware ADS-B
Sat 12:35:21 AM 51.3344 21.0482 138° Southeast 504 580 39,000  Level FlightAware ADS-B
Sat 12:35:51 AM 51.2768 21.1315 138° Southeast 503 579 39,000  Level FlightAware ADS-B (EPSY / SZY)
Sat 12:36:22 AM 51.2221 21.2105 138° Southeast 503 579 39,000  Level FlightAware ADS-B
Sat 12:36:55 AM 51.1660 21.2913 138° Southeast 503 579 39,000  Level FlightAware ADS-B (EPSY / SZY)
Sat 12:37:30 AM 51.1032 21.3811 138° Southeast 503 579 39,000  Level FlightAware ADS-B (EPSY / SZY)
Sat 12:38:01 AM 51.0525 21.4537 138° Southeast 503 579 39,000  Level FlightAware ADS-B (EPSY / SZY)
Sat 12:38:31 AM 51.0013 21.5265 138° Southeast 504 580 39,000  Level FlightAware ADS-B (EPSY / SZY)
Sat 12:39:04 AM 50.9437 21.6084 138° Southeast 501 577 39,000  Level FlightAware ADS-B
Sat 12:39:35 AM 50.8888 21.6862 138° Southeast 498 573 39,000  Level FlightAware ADS-B (EPSY / SZY)
Sat 12:40:17 AM 50.8183 21.7856 138° Southeast 497 572 39,000  Level FlightAware ADS-B (EPSY / SZY)
Sat 12:41:04 AM 50.7383 21.8977 138° Southeast 495 570 39,000  Level FlightAware ADS-B
Sat 12:41:43 AM 50.6703 21.9926 138° Southeast 495 570 39,000  Level FlightAware ADS-B
Sat 12:42:23 AM 50.6017 22.0879 139° Southeast 493 567 39,000  Level FlightAware ADS-B
Sat 12:43:03 AM 50.5337 22.1823 139° Southeast 492 566 39,000  Level FlightAware ADS-B
Sat 12:43:43 AM 50.4659 22.2760 139° Southeast 493 567 39,000  Level FlightAware ADS-B
Sat 12:44:19 AM 50.4054 22.3594 139° Southeast 494 568 39,000  Level FlightAware ADS-B
Sat 12:45:02 AM 50.3312 22.4609 139° Southeast 495 570 39,000 -123 Level FlightAware ADS-B
Sat 12:47:00 AM 50.1855 22.8178 122° Southeast  Level Estimated
Sat 12:48:00 AM 50.1110 22.9985 123° Southeast  Level Estimated
Sat 12:49:00 AM 50.0362 23.1786 123° Southeast  Level Estimated
Sat 12:50:00 AM 49.9611 23.3581 123° Southeast  Level Estimated
Sat 12:51:00 AM 49.8857 23.5371 123° Southeast  Level Estimated
Sat 12:52:00 AM 49.8101 23.7155 123° Southeast  Level Estimated
Sat 12:53:00 AM 49.7341 23.8934 123° Southeast  Level Estimated
Sat 12:54:00 AM 49.6580 24.0707 124° Southeast  Level Estimated
Sat 12:55:00 AM 49.5815 24.2474 124° Southeast  Level Estimated
Sat 12:56:00 AM 49.5048 24.4236 124° Southeast  Level Estimated
Sat 12:57:00 AM 49.4278 24.5993 124° Southeast  Level Estimated
Sat 12:58:00 AM 49.3506 24.7744 124° Southeast  Level Estimated
Sat 12:59:00 AM 49.2730 24.9489 124° Southeast  Level Estimated
Sat 01:00:00 AM 49.1953 25.1229 124° Southeast  Level Estimated
Sat 01:01:00 AM 49.1172 25.2963 124° Southeast  Level Estimated
Sat 01:02:00 AM 49.0389 25.4692 125° Southeast  Level Estimated
Sat 01:03:00 AM 48.9604 25.6416 125° Southeast  Level Estimated
Sat 01:04:00 AM 48.8815 25.8134 125° Southeast  Level Estimated
Sat 01:05:00 AM 48.8025 25.9847 125° Southeast  Level Estimated
Sat 01:06:00 AM 48.7231 26.1554 125° Southeast  Level Estimated
Sat 01:07:00 AM 48.6436 26.3256 125° Southeast  Level Estimated
Sat 01:08:00 AM 48.5638 26.4952 125° Southeast  Level Estimated
Sat 01:09:00 AM 48.4837 26.6644 125° Southeast  Level Estimated
Sat 01:10:00 AM 48.4034 26.8329 126° Southeast  Level Estimated
Sat 01:11:00 AM 48.3228 27.0010 126° Southeast  Level Estimated
Sat 01:12:00 AM 48.2420 27.1685 126° Southeast  Level Estimated
Sat 01:13:00 AM 48.1609 27.3355 126° Southeast  Level Estimated
Sat 01:14:00 AM 48.0797 27.5020 126° Southeast  Level Estimated
Sat 01:15:00 AM 47.9981 27.6679 126° Southeast  Level Estimated
Sat 01:16:00 AM 47.9164 27.8333 126° Southeast  Level Estimated
Sat 01:17:00 AM 47.8344 27.9982 126° Southeast  Level Estimated
Sat 01:18:00 AM 47.7521 28.1626 127° Southeast  Level Estimated
Sat 01:19:00 AM 47.6696 28.3264 127° Southeast  Level Estimated
Sat 01:20:00 AM 47.5869 28.4897 127° Southeast  Level Estimated
Sat 01:21:00 AM 47.5040 28.6526 127° Southeast  Level Estimated
Sat 01:22:00 AM 47.4208 28.8149 127° Southeast  Level Estimated
Sat 01:23:00 AM 47.3374 28.9767 127° Southeast  Level Estimated
Sat 01:24:00 AM 47.2538 29.1379 127° Southeast  Level Estimated
Sat 01:25:00 AM 47.1699 29.2987 127° Southeast  Level Estimated
Sat 01:26:00 AM 47.0859 29.4590 128° Southeast  Level Estimated
Sat 01:27:00 AM 47.0016 29.6187 128° Southeast  Level Estimated
Sat 01:28:00 AM 46.9171 29.7780 128° Southeast  Level Estimated
Sat 01:29:00 AM 46.8323 29.9367 128° Southeast  Level Estimated
Sat 01:30:00 AM 46.7474 30.0950 128° Southeast  Level Estimated
Sat 01:31:00 AM 46.6622 30.2527 128° Southeast  Level Estimated
Sat 01:32:00 AM 46.5768 30.4100 128° Southeast  Level Estimated
Sat 01:33:00 AM 46.4912 30.5667 128° Southeast  Level Estimated
Sat 01:34:00 AM 46.4054 30.7230 129° Southeast  Level Estimated
Sat 01:35:00 AM 46.3194 30.8788 129° Southeast  Level Estimated
Sat 01:36:00 AM 46.2331 31.0340 129° Southeast  Level Estimated
Sat 01:37:00 AM 46.1467 31.1889 129° Southeast  Level Estimated
Sat 01:38:00 AM 46.0600 31.3432 129° Southeast  Level Estimated
Sat 01:39:00 AM 45.9731 31.4970 129° Southeast  Level Estimated
Sat 01:40:00 AM 45.8861 31.6503 129° Southeast  Level Estimated
Sat 01:41:00 AM 45.7988 31.8032 129° Southeast  Level Estimated
Sat 01:42:00 AM 45.7113 31.9556 129° Southeast  Level Estimated
Sat 01:43:00 AM 45.6236 32.1075 130° Southeast  Level Estimated
Sat 01:44:00 AM 45.5357 32.2589 130° Southeast  Level Estimated
Sat 01:45:00 AM 45.4477 32.4099 130° Southeast  Level Estimated
Sat 01:46:00 AM 45.3594 32.5604 130° Southeast  Level Estimated
Sat 01:47:00 AM 45.2709 32.7104 130° Southeast  Level Estimated
Sat 01:48:00 AM 45.1822 32.8599 130° Southeast  Level Estimated
Sat 01:49:00 AM 45.0934 33.0090 130° Southeast  Level Estimated
Sat 01:50:00 AM 45.0043 33.1576 130° Southeast  Level Estimated
Sat 01:51:00 AM 44.9151 33.3058 130° Southeast  Level Estimated
Sat 01:52:00 AM 44.8256 33.4535 130° Southeast  Level Estimated
Sat 01:53:00 AM 44.7360 33.6007 131° Southeast  Level Estimated
Sat 01:54:00 AM 44.6462 33.7475 131° Southeast  Level Estimated
Sat 01:55:00 AM 44.5561 33.8939 131° Southeast  Level Estimated
Sat 01:56:00 AM 44.4660 34.0397 131° Southeast  Level Estimated
Sat 01:57:00 AM 44.3756 34.1852 131° Southeast  Level Estimated
Sat 01:58:00 AM 44.2850 34.3302 131° Southeast  Level Estimated
Sat 01:59:00 AM 44.1943 34.4747 131° Southeast  Level Estimated
Sat 02:00:00 AM 44.1033 34.6188 131° Southeast  Level Estimated
Sat 02:01:00 AM 44.0122 34.7624 131° Southeast  Level Estimated
Sat 02:02:00 AM 43.9209 34.9056 131° Southeast  Level Estimated
Sat 02:03:00 AM 43.8295 35.0484 132° Southeast  Level Estimated
Sat 02:04:00 AM 43.7378 35.1907 132° Southeast  Level Estimated
Sat 02:05:00 AM 43.6460 35.3326 132° Southeast  Level Estimated
Sat 02:06:00 AM 43.5540 35.4740 132° Southeast  Level Estimated
Sat 02:07:00 AM 43.4618 35.6151 132° Southeast  Level Estimated
Sat 02:08:00 AM 43.3695 35.7557 132° Southeast  Level Estimated
Sat 02:09:00 AM 43.2770 35.8959 132° Southeast  Level Estimated
Sat 02:10:00 AM 43.1843 36.0356 132° Southeast  Level Estimated
Sat 02:11:00 AM 43.0914 36.1749 132° Southeast  Level Estimated
Sat 02:12:00 AM 42.9984 36.3138 132° Southeast  Level Estimated
Sat 02:13:00 AM 42.9052 36.4523 133° Southeast  Level Estimated
Sat 02:14:00 AM 42.8119 36.5904 133° Southeast  Level Estimated
Sat 02:15:00 AM 42.7184 36.7280 133° Southeast  Level Estimated
Sat 02:16:00 AM 42.6247 36.8652 133° Southeast  Level Estimated
Sat 02:17:00 AM 42.5308 37.0020 133° Southeast  Level Estimated
Sat 02:18:00 AM 42.4368 37.1384 133° Southeast  Level Estimated
Sat 02:19:00 AM 42.3426 37.2744 133° Southeast  Level Estimated
Sat 02:20:00 AM 42.2483 37.4100 133° Southeast  Level Estimated
Sat 02:21:00 AM 42.1538 37.5452 133° Southeast  Level Estimated
Sat 02:22:00 AM 42.0592 37.6800 133° Southeast  Level Estimated
Sat 02:23:00 AM 41.9644 37.8144 133° Southeast  Level Estimated
Sat 02:24:00 AM 41.8694 37.9483 134° Southeast  Level Estimated
Sat 02:25:00 AM 41.7743 38.0819 134° Southeast  Level Estimated
Sat 02:26:00 AM 41.6790 38.2151 134° Southeast  Level Estimated
Sat 02:27:00 AM 41.5836 38.3479 134° Southeast  Level Estimated
Sat 02:28:00 AM 41.4880 38.4803 134° Southeast  Level Estimated
Sat 02:29:00 AM 41.3923 38.6123 134° Southeast  Level Estimated
Sat 02:30:00 AM 41.2964 38.7439 134° Southeast  Level Estimated
Sat 02:31:00 AM 41.2004 38.8751 134° Southeast  Level Estimated
Sat 02:32:00 AM 41.1042 39.0060 134° Southeast  Level Estimated
Sat 02:33:00 AM 41.0079 39.1365 134° Southeast  Level Estimated
Sat 02:34:00 AM 40.9114 39.2665 134° Southeast  Level Estimated
Sat 02:35:00 AM 40.8148 39.3962 135° Southeast  Level Estimated
Sat 02:36:00 AM 40.7180 39.5256 135° Southeast  Level Estimated
Sat 02:37:00 AM 40.6211 39.6545 135° Southeast  Level Estimated
Sat 02:38:00 AM 40.5240 39.7831 135° Southeast  Level Estimated
Sat 02:39:00 AM 40.4268 39.9113 135° Southeast  Level Estimated
Sat 02:40:00 AM 40.3295 40.0391 135° Southeast  Level Estimated
Sat 02:41:00 AM 40.2321 40.1666 135° Southeast  Level Estimated
Sat 02:42:00 AM 40.1344 40.2937 135° Southeast  Level Estimated
Sat 02:43:00 AM 40.0367 40.4204 135° Southeast  Level Estimated
Sat 02:44:00 AM 39.9388 40.5468 135° Southeast  Level Estimated
Sat 02:45:00 AM 39.8408 40.6728 135° Southeast  Level Estimated
Sat 02:46:00 AM 39.7426 40.7985 135° Southeast  Level Estimated
Sat 02:47:00 AM 39.6443 40.9237 136° Southeast  Level Estimated
Sat 02:48:00 AM 39.5459 41.0487 136° Southeast  Level Estimated
Sat 02:49:00 AM 39.4473 41.1733 136° Southeast  Level Estimated
Sat 02:50:00 AM 39.3486 41.2975 136° Southeast  Level Estimated
Sat 02:51:00 AM 39.2498 41.4214 136° Southeast  Level Estimated
Sat 02:52:00 AM 39.1508 41.5449 136° Southeast  Level Estimated
Sat 02:53:00 AM 39.0517 41.6681 136° Southeast  Level Estimated
Sat 02:54:00 AM 38.9525 41.7909 136° Southeast  Level Estimated
Sat 02:55:00 AM 38.8532 41.9134 136° Southeast  Level Estimated
Sat 02:56:00 AM 38.7537 42.0356 136° Southeast  Level Estimated
Sat 02:57:00 AM 38.6541 42.1574 136° Southeast  Level Estimated
Sat 02:58:00 AM 38.5544 42.2788 136° Southeast  Level Estimated
Sat 02:59:00 AM 38.4545 42.4000 136° Southeast  Level Estimated
Sat 03:00:00 AM 38.3545 42.5208 137° Southeast  Level Estimated
Sat 03:01:00 AM 38.2544 42.6413 137° Southeast  Level Estimated
Sat 03:02:00 AM 38.1542 42.7614 137° Southeast  Level Estimated
Sat 03:03:00 AM 38.0539 42.8812 137° Southeast  Level Estimated
Sat 03:04:00 AM 37.9534 43.0007 137° Southeast  Level Estimated
Sat 03:05:00 AM 37.8528 43.1198 137° Southeast  Level Estimated
Sat 03:06:00 AM 37.7521 43.2387 137° Southeast  Level Estimated
Sat 03:07:00 AM 37.6513 43.3572 137° Southeast  Level Estimated
Sat 03:08:00 AM 37.5503 43.4753 137° Southeast  Level Estimated
Sat 03:09:00 AM 37.4493 43.5932 137° Southeast  Level Estimated
Sat 03:10:00 AM 37.3481 43.7107 137° Southeast  Level Estimated
Sat 03:11:00 AM 37.2468 43.8280 137° Southeast  Level Estimated
Sat 03:12:00 AM 37.1454 43.9449 137° Southeast  Level Estimated
Sat 03:13:00 AM 37.0439 44.0615 137° Southeast  Level Estimated
Sat 03:14:00 AM 36.9422 44.1778 138° Southeast  Level Estimated
Sat 03:15:00 AM 36.8405 44.2938 138° Southeast  Level Estimated
Sat 03:16:00 AM 36.7386 44.4094 138° Southeast  Level Estimated
Sat 03:17:00 AM 36.6366 44.5248 138° Southeast  Level Estimated
Sat 03:18:00 AM 36.5345 44.6398 138° Southeast  Level Estimated
Sat 03:19:00 AM 36.4323 44.7546 138° Southeast  Level Estimated
Sat 03:20:00 AM 36.3300 44.8690 138° Southeast  Level Estimated
Sat 03:21:00 AM 36.2276 44.9832 138° Southeast  Level Estimated
Sat 03:22:00 AM 36.1251 45.0970 138° Southeast  Level Estimated
Sat 03:23:00 AM 36.0225 45.2106 138° Southeast  Level Estimated
Sat 03:24:00 AM 35.9197 45.3239 138° Southeast  Level Estimated
Sat 03:25:00 AM 35.8169 45.4368 138° Southeast  Level Estimated
Sat 03:26:00 AM 35.7139 45.5495 138° Southeast  Level Estimated
Sat 03:27:00 AM 35.6109 45.6619 138° Southeast  Level Estimated
Sat 03:28:00 AM 35.5077 45.7740 138° Southeast  Level Estimated
Sat 03:29:00 AM 35.4045 45.8858 139° Southeast  Level Estimated
Sat 03:30:00 AM 35.3011 45.9973 139° Southeast  Level Estimated
Sat 03:31:00 AM 35.1976 46.1085 139° Southeast  Level Estimated
Sat 03:32:00 AM 35.0941 46.2195 139° Southeast  Level Estimated
Sat 03:33:00 AM 34.9904 46.3302 139° Southeast  Level Estimated
Sat 03:34:00 AM 34.8866 46.4405 139° Southeast  Level Estimated
Sat 03:35:00 AM 34.7828 46.5507 139° Southeast  Level Estimated
Sat 03:36:00 AM 34.6788 46.6605 139° Southeast  Level Estimated
Sat 03:37:00 AM 34.5747 46.7700 139° Southeast  Level Estimated
Sat 03:38:00 AM 34.4706 46.8793 139° Southeast  Level Estimated
Sat 03:39:00 AM 34.3663 46.9883 139° Southeast  Level Estimated
Sat 03:40:00 AM 34.2620 47.0971 139° Southeast  Level Estimated
Sat 03:41:00 AM 34.1575 47.2055 139° Southeast  Level Estimated
Sat 03:42:00 AM 34.0530 47.3137 139° Southeast  Level Estimated
Sat 03:43:00 AM 33.9483 47.4217 139° Southeast  Level Estimated
Sat 03:44:00 AM 33.8436 47.5294 139° Southeast  Level Estimated
Sat 03:45:00 AM 33.7387 47.6368 140° Southeast  Level Estimated
Sat 03:46:00 AM 33.6338 47.7439 140° Southeast  Level Estimated
Sat 03:47:00 AM 33.5288 47.8508 140° Southeast  Level Estimated
Sat 03:48:00 AM 33.4237 47.9574 140° Southeast  Level Estimated
Sat 03:49:00 AM 33.3185 48.0638 140° Southeast  Level Estimated
Sat 03:50:00 AM 33.2132 48.1699 140° Southeast  Level Estimated
Sat 03:51:00 AM 33.1078 48.2757 140° Southeast  Level Estimated
Sat 03:52:00 AM 33.0024 48.3814 140° Southeast  Level Estimated
Sat 03:53:00 AM 32.8968 48.4867 140° Southeast  Level Estimated
Sat 03:54:00 AM 32.7912 48.5918 140° Southeast  Level Estimated
Sat 03:55:00 AM 32.6854 48.6967 140° Southeast  Level Estimated
Sat 03:56:00 AM 32.5796 48.8013 140° Southeast  Level Estimated
Sat 03:57:00 AM 32.4737 48.9056 140° Southeast  Level Estimated
Sat 03:58:00 AM 32.3677 49.0097 140° Southeast  Level Estimated
Sat 03:59:00 AM 32.2617 49.1136 140° Southeast  Level Estimated
Sat 04:00:00 AM 32.1555 49.2172 140° Southeast  Level Estimated
Sat 04:01:00 AM 32.0493 49.3206 140° Southeast  Level Estimated
Sat 04:02:00 AM 31.9429 49.4237 141° Southeast  Level Estimated
Sat 04:03:00 AM 31.8365 49.5266 141° Southeast  Level Estimated
Sat 04:04:00 AM 31.7300 49.6293 141° Southeast  Level Estimated
Sat 04:05:00 AM 31.6234 49.7317 141° Southeast  Level Estimated
Sat 04:06:00 AM 31.5168 49.8339 141° Southeast  Level Estimated
Sat 04:07:00 AM 31.4100 49.9359 141° Southeast  Level Estimated
Sat 04:08:00 AM 31.3032 50.0376 141° Southeast  Level Estimated
Sat 04:09:00 AM 31.1963 50.1391 141° Southeast  Level Estimated
Sat 04:10:00 AM 31.0893 50.2404 141° Southeast  Level Estimated
Sat 04:11:00 AM 30.9823 50.3414 141° Southeast  Level Estimated
Sat 04:12:00 AM 30.8752 50.4422 141° Southeast  Level Estimated
Sat 04:13:00 AM 30.7679 50.5428 141° Southeast  Level Estimated
Sat 04:14:00 AM 30.6607 50.6432 141° Southeast  Level Estimated
Sat 04:15:00 AM 30.5533 50.7433 141° Southeast  Level Estimated
Sat 04:16:00 AM 30.4458 50.8433 141° Southeast  Level Estimated
Sat 04:17:00 AM 30.3383 50.9430 141° Southeast  Level Estimated
Sat 04:18:00 AM 30.2307 51.0424 141° Southeast  Level Estimated
Sat 04:19:00 AM 30.1231 51.1417 141° Southeast  Level Estimated
Sat 04:20:00 AM 30.0153 51.2407 141° Southeast  Level Estimated
Sat 04:21:00 AM 29.9075 51.3396 142° Southeast  Level Estimated
Sat 04:22:00 AM 29.7996 51.4382 142° Southeast  Level Estimated
Sat 04:23:00 AM 29.6916 51.5366 142° Southeast  Level Estimated
Sat 04:24:00 AM 29.5836 51.6348 142° Southeast  Level Estimated
Sat 04:25:00 AM 29.4755 51.7328 142° Southeast  Level Estimated
Sat 04:26:00 AM 29.3673 51.8306 142° Southeast  Level Estimated
Sat 04:27:00 AM 29.2590 51.9282 142° Southeast  Level Estimated
Sat 04:28:00 AM 29.1507 52.0255 142° Southeast  Level Estimated
Sat 04:29:00 AM 29.0423 52.1227 142° Southeast  Level Estimated
Sat 04:30:00 AM 28.9339 52.2196 142° Southeast  Level Estimated
Sat 04:31:00 AM 28.8253 52.3164 142° Southeast  Level Estimated
Sat 04:32:00 AM 28.7167 52.4129 142° Southeast  Level Estimated
Sat 04:33:00 AM 28.6081 52.5093 142° Southeast  Level Estimated
Sat 04:34:00 AM 28.4993 52.6054 142° Southeast  Level Estimated
Sat 04:35:00 AM 28.3905 52.7014 142° Southeast  Level Estimated
Sat 04:36:00 AM 28.2817 52.7971 142° Southeast  Level Estimated
Sat 04:37:00 AM 28.1727 52.8927 142° Southeast  Level Estimated
Sat 04:38:00 AM 28.0637 52.9881 142° Southeast  Level Estimated
Sat 04:39:00 AM 27.9546 53.0832 142° Southeast  Level Estimated
Sat 04:40:00 AM 27.8455 53.1782 142° Southeast  Level Estimated
Sat 04:41:00 AM 27.7363 53.2730 142° Southeast  Level Estimated
Sat 04:42:00 AM 27.6270 53.3676 143° Southeast  Level Estimated
Sat 04:43:00 AM 27.5177 53.4620 143° Southeast  Level Estimated
Sat 04:44:00 AM 27.4083 53.5563 143° Southeast  Level Estimated
Sat 04:45:00 AM 27.2988 53.6503 143° Southeast  Level Estimated
Sat 04:46:00 AM 27.1893 53.7441 143° Southeast  Level Estimated
Sat 04:47:00 AM 27.0797 53.8378 143° Southeast  Level Estimated
Sat 04:48:00 AM 26.9701 53.9313 143° Southeast  Level Estimated
Sat 04:49:00 AM 26.8604 54.0246 143° Southeast  Level Estimated
Sat 04:50:00 AM 26.7506 54.1177 143° Southeast  Level Estimated
Sat 04:51:00 AM 26.6408 54.2107 143° Southeast  Level Estimated
Sat 04:52:00 AM 26.5309 54.3034 143° Southeast  Level Estimated
Sat 04:53:00 AM 26.4209 54.3960 143° Southeast  Level Estimated
Sat 04:54:00 AM 26.3109 54.4884 143° Southeast  Level Estimated
Sat 04:55:00 AM 26.2009 54.5807 143° Southeast  Level Estimated
Sat 04:56:00 AM 26.0907 54.6727 143° Southeast  Level Estimated
Sat 04:57:00 AM 25.9806 54.7646 143° Southeast  Level Estimated
Sat 04:58:00 AM 25.8703 54.8563 143° Southeast  Level Estimated
Sat 04:59:00 AM 25.7600 54.9479 143° Southeast  Level Estimated
Sat 05:00:00 AM 25.6497 55.0392 143° Southeast  Level Estimated
Sat 05:01:00 AM 25.5393 55.1305 143° Southeast  Level Estimated
Sat 05:02:00 AM 25.4288 55.2215 143° Southeast  Level Estimated
Sat 05:05:48 AM 25.3170 55.3964 143° Southeast 246 283 6,800  Level FlightAware ADS-B
Sat 05:06:13 AM 25.3066 55.4150 122° Southeast 244 281 6,400 -482 Descending FlightAware ADS-B
Sat 05:07:40 AM 25.2770 55.4698 121° Southeast 238 274 5,900 -345 Descending FlightAware ADS-B

Login

Don't have an account? Register now (free) for customized features, flight alerts, and more!